createdAt,value
2024-02-03T00:09:10.054Z,64.40
2024-02-03T00:11:38.416Z,65.34
2024-02-03T00:21:42.741Z,64.53
2024-02-03T00:31:48.154Z,65.80
2024-02-03T00:34:16.529Z,65.41
2024-02-03T00:42:55.825Z,64.10
2024-02-03T00:45:23.789Z,63.86
2024-02-03T00:47:51.724Z,63.45
2024-02-03T00:50:19.712Z,64.20
2024-02-03T00:52:47.494Z,64.76
2024-02-03T00:55:15.748Z,65.20
2024-02-03T00:57:43.624Z,65.92
2024-02-03T01:00:13.909Z,66.08
2024-02-03T01:02:43.032Z,64.11
2024-02-03T01:05:11.097Z,63.36
2024-02-03T01:07:39.189Z,62.89
2024-02-03T01:17:46.031Z,64.80
2024-02-03T01:27:50.003Z,63.67
2024-02-03T01:30:18.304Z,61.54
2024-02-03T01:32:46.047Z,61.58
2024-02-03T01:35:13.907Z,61.76
2024-02-03T01:37:41.634Z,61.75
2024-02-03T01:40:10.316Z,62.37
2024-02-03T01:42:38.129Z,62.57
2024-02-03T01:45:06.797Z,63.14
2024-02-03T01:47:34.663Z,63.61
2024-02-03T01:50:03.152Z,63.38
2024-02-03T01:52:30.972Z,61.47
2024-02-03T01:54:58.769Z,60.50
2024-02-03T01:57:26.535Z,60.37
2024-02-03T01:59:54.621Z,60.88
2024-02-03T02:02:22.459Z,61.45
2024-02-03T02:04:50.215Z,61.79
2024-02-03T02:07:20.287Z,62.02
2024-02-03T02:09:49.732Z,62.96
2024-02-03T02:12:17.986Z,63.60
2024-02-03T02:14:45.912Z,63.58
2024-02-03T02:17:13.735Z,61.98
2024-02-03T02:19:41.577Z,61.08
2024-02-03T02:22:09.590Z,62.04
2024-02-03T02:24:37.411Z,63.48
2024-02-03T02:27:05.997Z,64.18
2024-02-03T02:29:33.914Z,65.95
2024-02-03T02:39:26.842Z,66.82
2024-02-03T02:41:55.076Z,69.00
2024-02-03T02:44:22.923Z,69.71
2024-02-03T02:46:50.786Z,69.92
2024-02-03T02:49:18.549Z,70.15
2024-02-03T02:51:46.362Z,72.01
2024-02-03T02:54:14.338Z,74.60
2024-02-03T03:04:19.372Z,78.11
2024-02-03T05:24:09.714Z,80.50
2024-02-03T05:26:37.518Z,81.34
2024-02-03T05:29:05.603Z,81.86
2024-02-03T05:31:33.587Z,80.27
2024-02-03T05:34:01.499Z,79.87
2024-02-03T05:36:29.474Z,80.59
2024-02-03T05:46:36.034Z,80.03
2024-02-03T05:49:03.839Z,80.08
2024-02-03T05:51:31.794Z,81.48
2024-02-03T05:53:59.613Z,82.32
2024-02-03T06:04:12.239Z,82.83
2024-02-03T06:13:24.651Z,81.21
2024-02-03T06:15:54.422Z,82.04
2024-02-03T06:25:57.375Z,81.64
2024-02-03T06:28:26.370Z,81.75
2024-02-03T06:30:54.133Z,82.20
2024-02-03T06:40:58.806Z,80.75
2024-02-03T06:43:26.595Z,81.74
2024-02-03T06:45:55.440Z,83.19
2024-02-03T06:48:23.461Z,81.94
2024-02-03T06:50:51.504Z,81.04
2024-02-03T06:53:19.268Z,81.31
2024-02-03T06:55:47.127Z,82.19
2024-02-03T06:58:14.896Z,83.37
2024-02-03T07:08:22.751Z,82.68
2024-02-03T07:10:50.714Z,83.51
2024-02-03T07:19:55.491Z,81.39
2024-02-03T07:30:02.645Z,81.48
2024-02-03T07:32:31.476Z,80.88
2024-02-03T07:34:59.548Z,81.30
2024-02-03T07:37:27.463Z,82.17
2024-02-03T07:39:55.264Z,83.04
2024-02-03T07:42:23.184Z,81.73
2024-02-03T07:44:51.146Z,81.42
2024-02-03T07:55:04.943Z,82.45
2024-02-03T07:57:32.730Z,81.64
2024-02-03T08:00:00.704Z,81.93
2024-02-03T08:02:28.447Z,82.63
2024-02-03T08:04:56.598Z,83.83
2024-02-03T08:07:24.485Z,83.92
2024-02-03T08:09:52.410Z,82.07
2024-02-03T08:12:20.383Z,83.08
2024-02-03T08:22:25.100Z,83.87
2024-02-03T08:24:53.654Z,83.20
2024-02-03T08:27:21.584Z,83.86
2024-02-03T08:29:49.310Z,85.19
2024-02-03T08:32:17.682Z,85.17
2024-02-03T08:37:16.276Z,83.69
2024-02-03T08:42:16.737Z,85.73
2024-02-03T08:44:44.694Z,85.29
2024-02-03T08:47:12.677Z,84.82
2024-02-03T08:49:51.332Z,85.56
2024-02-03T08:52:19.071Z,86.24
2024-02-03T08:54:47.585Z,85.52
2024-02-03T08:57:15.593Z,85.19
2024-02-03T08:59:43.580Z,86.12
2024-02-03T09:02:11.430Z,86.59
2024-02-03T09:04:39.125Z,86.37
2024-02-03T09:14:43.257Z,85.84
2024-02-03T09:24:52.990Z,84.91
2024-02-03T09:27:20.892Z,83.99
2024-02-03T09:29:49.196Z,84.59
2024-02-03T09:32:17.064Z,85.80
2024-02-03T09:34:49.507Z,84.97
2024-02-03T09:39:49.006Z,84.99
2024-02-03T09:42:17.023Z,85.86
2024-02-03T09:44:46.279Z,85.43
2024-02-03T09:47:15.905Z,83.91
2024-02-03T09:49:47.022Z,84.27
2024-02-03T09:52:16.445Z,84.71
2024-02-03T09:54:48.035Z,85.36
2024-02-03T10:05:00.277Z,84.07
2024-02-03T10:07:29.024Z,82.79
2024-02-03T10:12:38.265Z,83.04
2024-02-03T10:15:07.722Z,82.58
2024-02-03T10:17:36.820Z,81.47
2024-02-03T10:20:08.344Z,81.83
2024-02-03T10:22:38.883Z,82.62
2024-02-03T10:25:12.858Z,83.66
2024-02-03T10:27:43.278Z,82.64
2024-02-03T10:30:12.404Z,82.38
2024-02-03T10:32:40.341Z,83.02
2024-02-03T10:35:09.649Z,84.75
2024-02-03T10:45:13.497Z,84.00
2024-02-03T10:47:44.116Z,83.78
2024-02-03T10:50:13.609Z,82.21
2024-02-03T10:52:41.659Z,82.53
2024-02-03T10:55:09.426Z,82.95
2024-02-03T10:57:37.369Z,82.80
2024-02-03T11:00:08.354Z,82.36
2024-02-03T11:02:36.307Z,82.48
2024-02-03T11:05:04.320Z,82.55
2024-02-03T11:07:32.408Z,82.71
2024-02-03T11:10:04.449Z,82.69
2024-02-03T11:12:36.569Z,82.42
2024-02-03T11:15:12.189Z,83.62
2024-02-03T11:17:46.269Z,84.14
2024-02-03T11:20:22.186Z,82.79
2024-02-03T11:22:53.847Z,82.50
2024-02-03T11:25:21.701Z,83.01
2024-02-03T11:35:16.248Z,82.69
2024-02-03T11:37:44.136Z,84.16
2024-02-03T11:40:12.698Z,83.38
2024-02-03T11:42:43.893Z,82.29
2024-02-03T11:45:19.019Z,82.82
2024-02-03T11:47:46.855Z,84.32
2024-02-03T11:50:14.624Z,84.38
2024-02-03T11:52:49.189Z,83.91
2024-02-03T11:55:17.101Z,84.93
2024-02-03T11:57:44.892Z,85.18
2024-02-03T12:00:14.860Z,83.24
2024-02-03T12:02:43.264Z,82.89
2024-02-03T12:12:53.001Z,80.59
2024-02-03T12:15:20.935Z,80.17
2024-02-03T12:17:49.061Z,80.32
2024-02-03T12:20:24.436Z,79.62
2024-02-03T12:22:53.223Z,77.80
2024-02-03T12:25:21.746Z,78.54
2024-02-03T12:27:49.644Z,78.86
2024-02-03T12:37:59.465Z,78.53
2024-02-03T12:40:30.127Z,80.77
2024-02-03T12:42:58.286Z,82.56
2024-02-03T12:51:47.686Z,83.41
2024-02-03T12:54:16.251Z,85.10
2024-02-03T12:56:44.159Z,84.31
2024-02-03T13:06:23.363Z,85.48
2024-02-03T13:08:51.421Z,84.86
2024-02-03T13:11:22.253Z,84.33
2024-02-03T13:13:50.901Z,85.99
2024-02-03T13:16:18.711Z,85.78
2024-02-03T13:18:47.206Z,83.87
2024-02-03T13:21:15.164Z,83.05
2024-02-03T13:23:43.119Z,82.88
2024-02-03T13:26:11.712Z,83.92
2024-02-03T13:28:39.750Z,84.09
2024-02-03T13:31:08.398Z,83.39
2024-02-03T13:33:36.413Z,83.14
2024-02-03T13:36:05.132Z,84.67
2024-02-03T13:38:32.944Z,86.26
2024-02-03T13:41:02.503Z,85.37
2024-02-03T13:43:31.266Z,86.08
2024-02-03T13:45:59.278Z,87.34
2024-02-03T13:48:27.417Z,86.59
2024-02-03T13:58:33.119Z,88.44
2024-02-03T14:01:01.046Z,86.90
2024-02-03T14:03:28.977Z,86.38
2024-02-03T14:05:57.113Z,87.51
2024-02-03T14:08:25.914Z,88.49
2024-02-03T14:10:53.892Z,88.10
2024-02-03T14:13:21.723Z,88.95
2024-02-03T14:15:49.599Z,90.30
2024-02-03T14:18:17.784Z,90.85
2024-02-03T14:20:45.724Z,89.71
2024-02-03T14:23:13.598Z,89.58
2024-02-03T14:25:41.572Z,89.67
2024-02-03T14:28:09.488Z,90.33
2024-02-03T14:30:37.475Z,89.71
2024-02-03T14:33:07.459Z,89.12
2024-02-03T14:35:36.288Z,89.11
2024-02-03T14:38:04.723Z,89.31
2024-02-03T14:40:32.553Z,87.84
2024-02-03T14:43:00.585Z,87.55
2024-02-03T14:45:30.030Z,88.00
2024-02-03T14:47:58.742Z,87.85
2024-02-03T14:50:29.541Z,86.37
2024-02-03T14:52:57.446Z,86.02
2024-02-03T14:55:25.480Z,87.23
2024-02-03T15:05:32.318Z,86.19
2024-02-03T15:08:00.216Z,86.80
2024-02-03T15:10:28.147Z,84.54
2024-02-03T15:12:56.078Z,83.78
2024-02-03T15:15:24.159Z,84.95
2024-02-03T15:17:52.472Z,86.11
2024-02-03T15:20:20.461Z,85.05
2024-02-03T15:22:48.294Z,85.58
2024-02-03T15:25:16.117Z,86.22
2024-02-03T15:27:44.112Z,86.49
2024-02-03T15:30:12.205Z,84.83
2024-02-03T15:32:40.189Z,83.69
2024-02-03T15:35:09.060Z,84.52
2024-02-03T15:37:37.192Z,85.78
2024-02-03T15:40:06.078Z,84.97
2024-02-03T15:42:47.629Z,83.75
2024-02-03T15:45:19.704Z,83.99
2024-02-03T15:47:47.740Z,84.44
2024-02-03T15:50:16.269Z,83.97
2024-02-03T15:52:44.128Z,82.91
2024-02-03T15:55:13.490Z,82.59
2024-02-03T15:57:41.398Z,83.17
2024-02-03T16:00:10.199Z,83.80
2024-02-03T16:02:41.433Z,82.59
2024-02-03T16:05:10.216Z,82.03
2024-02-03T16:07:38.112Z,82.77
2024-02-03T16:10:07.582Z,83.95
2024-02-03T16:12:38.367Z,83.40
2024-02-03T16:15:07.379Z,82.31
2024-02-03T16:17:35.669Z,82.73
2024-02-03T16:20:06.757Z,83.29
2024-02-03T16:22:35.699Z,83.65
2024-02-03T16:25:04.206Z,82.05
2024-02-03T16:27:32.304Z,81.61
2024-02-03T16:30:00.467Z,82.16
2024-02-03T16:32:28.384Z,83.13
2024-02-03T16:34:56.340Z,82.50
2024-02-03T16:37:24.502Z,81.11
2024-02-03T16:39:52.581Z,80.65
2024-02-03T16:42:20.603Z,81.43
2024-02-03T16:44:48.582Z,82.44
2024-02-03T16:47:16.416Z,80.92
2024-02-03T16:49:44.768Z,80.35
2024-02-03T16:52:12.671Z,80.62
2024-02-03T16:54:40.579Z,81.80
2024-02-03T16:57:12.277Z,81.71
2024-02-03T16:59:40.254Z,79.84
2024-02-03T17:02:08.255Z,80.14
2024-02-03T17:04:39.277Z,80.95
2024-02-03T17:07:07.373Z,81.77
2024-02-03T17:09:35.346Z,80.53
2024-02-03T17:12:03.294Z,80.15
2024-02-03T17:14:31.127Z,80.21
2024-02-03T17:16:59.003Z,80.66
2024-02-03T17:19:27.096Z,81.20
2024-02-03T17:21:58.925Z,79.77
2024-02-03T17:24:26.987Z,79.76
2024-02-03T17:26:54.886Z,80.34
2024-02-03T17:29:22.738Z,81.32
2024-02-03T17:32:00.729Z,80.73
2024-02-03T17:34:31.367Z,79.85
2024-02-03T17:37:00.549Z,80.09
2024-02-03T17:39:28.574Z,80.47
2024-02-03T17:41:56.743Z,80.93
2024-02-03T17:44:25.083Z,79.66
2024-02-03T17:46:52.922Z,79.04
2024-02-03T17:49:20.952Z,79.44
2024-02-03T17:51:49.034Z,80.31
2024-02-03T17:54:17.240Z,80.37
2024-02-03T17:56:47.490Z,79.05
2024-02-03T17:59:17.800Z,79.64
2024-02-03T18:01:51.280Z,80.35
2024-02-03T18:04:20.719Z,81.14
2024-02-03T18:06:48.838Z,80.60
2024-02-03T18:09:17.038Z,79.86
2024-02-03T18:11:45.958Z,80.17
2024-02-03T18:14:14.132Z,80.77
2024-02-03T18:16:42.020Z,81.08
2024-02-03T18:19:12.246Z,79.50
2024-02-03T18:21:41.257Z,79.19
2024-02-03T18:24:09.098Z,79.96
2024-02-03T18:34:13.477Z,78.80
2024-02-03T18:36:41.552Z,78.91
2024-02-03T18:39:10.660Z,79.83
2024-02-03T18:41:38.477Z,79.38
2024-02-03T18:44:06.600Z,77.89
2024-02-03T18:46:34.879Z,77.97
2024-02-03T18:49:04.080Z,79.05
2024-02-03T18:51:32.353Z,79.71
2024-02-03T18:54:00.405Z,79.36
2024-02-03T18:56:28.759Z,78.47
2024-02-03T18:58:56.895Z,78.50
2024-02-03T19:01:25.182Z,78.94
2024-02-03T19:03:53.337Z,79.63
2024-02-03T19:06:23.757Z,78.71
2024-02-03T19:08:53.919Z,78.35
2024-02-03T19:11:21.826Z,78.28
2024-02-03T19:13:49.658Z,79.48
2024-02-03T19:16:17.538Z,78.92
2024-02-03T19:18:45.466Z,78.08
2024-02-03T19:21:13.565Z,77.26
2024-02-03T19:23:42.457Z,78.53
2024-02-03T19:26:10.429Z,79.17
2024-02-03T19:28:38.489Z,78.84
2024-02-03T19:31:07.716Z,77.71
2024-02-03T19:33:35.826Z,77.40
2024-02-03T19:36:06.695Z,78.29
2024-02-03T19:38:34.566Z,79.24
2024-02-03T19:41:02.640Z,77.98
2024-02-03T19:43:31.223Z,76.66
2024-02-03T19:45:59.619Z,77.16
2024-02-03T19:48:27.752Z,77.60
2024-02-03T19:50:55.809Z,78.63
2024-02-03T19:53:23.886Z,77.78
2024-02-03T19:55:51.892Z,76.82
2024-02-03T19:58:21.102Z,76.76
2024-02-03T20:00:49.199Z,77.03
2024-02-03T20:03:17.530Z,77.56
2024-02-03T20:05:45.720Z,76.38
2024-02-03T20:08:14.308Z,75.13
2024-02-03T20:10:42.461Z,75.27
2024-02-03T20:13:10.635Z,75.67
2024-02-03T20:15:38.792Z,75.94
2024-02-03T20:18:07.070Z,75.59
2024-02-03T20:20:35.318Z,74.83
2024-02-03T20:23:06.459Z,74.86
2024-02-03T20:25:34.650Z,75.75
2024-02-03T20:28:02.800Z,76.91
2024-02-03T20:30:30.929Z,77.72
2024-02-03T20:32:58.927Z,76.82
2024-02-03T20:35:31.761Z,75.95
2024-02-03T20:37:59.881Z,77.13
2024-02-03T20:40:28.074Z,77.92
2024-02-03T20:42:56.156Z,78.78
2024-02-03T20:45:24.305Z,77.60
2024-02-03T20:47:52.491Z,76.66
2024-02-03T20:50:20.759Z,76.96
2024-02-03T20:52:49.148Z,77.71
2024-02-03T20:55:16.976Z,78.03
2024-02-03T20:57:45.031Z,77.11
2024-02-03T21:00:13.780Z,76.71
2024-02-03T21:02:41.643Z,77.19
2024-02-03T21:05:14.381Z,78.38
2024-02-03T21:07:42.613Z,78.12
2024-02-03T21:10:11.976Z,76.66
2024-02-03T21:12:41.376Z,76.63
2024-02-03T21:15:10.014Z,77.15
2024-02-03T21:17:38.060Z,78.05
2024-02-03T21:20:07.386Z,77.92
2024-02-03T21:22:35.617Z,76.79
2024-02-03T21:25:04.902Z,76.78
2024-02-03T21:27:33.211Z,76.93
2024-02-03T21:30:01.118Z,77.00
2024-02-03T21:32:29.026Z,77.18
2024-02-03T21:34:57.115Z,75.94
2024-02-03T21:37:25.024Z,75.07
2024-02-03T21:39:52.925Z,75.03
2024-02-03T21:42:20.772Z,75.39
2024-02-03T21:52:30.355Z,73.90
2024-02-03T22:02:29.542Z,74.23
2024-02-03T22:04:57.338Z,73.61
2024-02-03T22:07:25.265Z,73.88
2024-02-03T22:09:54.165Z,74.73
2024-02-03T22:20:07.392Z,72.49
2024-02-03T22:22:35.158Z,72.00
2024-02-03T22:25:06.165Z,71.62
2024-02-03T22:27:37.180Z,72.15
2024-02-03T22:30:12.936Z,72.09
2024-02-03T22:32:40.812Z,72.24
2024-02-03T22:35:09.334Z,70.75
2024-02-03T22:37:37.944Z,70.45
2024-02-03T22:40:06.868Z,70.53
2024-02-03T22:42:34.762Z,71.13
2024-02-03T22:45:02.566Z,71.06
2024-02-03T22:47:30.508Z,71.75
2024-02-03T22:49:58.623Z,70.97
2024-02-03T22:52:26.463Z,69.32
2024-02-03T23:02:32.453Z,70.64
2024-02-03T23:05:00.372Z,71.53
2024-02-03T23:07:28.297Z,70.50
2024-02-03T23:09:56.080Z,69.44
2024-02-03T23:12:23.869Z,69.33
2024-02-03T23:14:51.689Z,69.32
2024-02-03T23:24:55.587Z,70.12
2024-02-03T23:33:38.146Z,69.80
2024-02-03T23:43:48.728Z,69.02
2024-02-03T23:46:16.514Z,67.32
2024-02-03T23:48:44.617Z,66.18
2024-02-03T23:58:51.684Z,68.35
